FW4801 Upper Fox Island current weather conditions

sailwx.info

Wind from 211 at 1 knots gusting 4

Air temperature 12.2° C
Dewpoint 10.8° C

Last reported at 2020-Jul-06 06:00 UTC.
Time now 2020-Jul-06 06:24 UTC

Location: N 45°19' W 061°09'.
View on Google Maps.

See reports from other nearby stations

  
Tides and Currents Weather Stations Pressure Air Temp Water Temp Dewpoint Dewpoint Depression Visibility Wind Speed Wind Dir Waves Ship Positions
date/time (UTC)wind fromknots sea level pressurealtimeterstation pressurevisibilityair tempwater tempwave heightnotes
2020-Jul-06 06:00 211 1 gusting 4 12.2
2020-Jul-06 05:45 196 0 gusting 2 12.2
2020-Jul-06 05:31 157 0 gusting 4 12.2
2020-Jul-06 05:16 151 12.2
2020-Jul-06 05:00 136 12.2
2020-Jul-06 04:45 143 12.2
2020-Jul-06 04:30 143 12.2
2020-Jul-06 04:15 142 12.2
2020-Jul-06 04:00 145 12.2
2020-Jul-06 03:45 170 12.2
2020-Jul-06 03:30 170 12.2
2020-Jul-06 03:15 183 12.8
2020-Jul-06 03:00 177 0 gusting 3 12.8
2020-Jul-06 02:45 175 0 gusting 4 12.8
2020-Jul-06 02:30 162 1 gusting 4 12.8
2020-Jul-06 02:15 163 0 gusting 3 12.8
2020-Jul-06 01:45 115 12.8
2020-Jul-06 01:30 147 12.8
2020-Jul-06 01:15 142 0 gusting 4 12.2
2020-Jul-06 01:00 178 12.8
2020-Jul-06 00:45 166 1 gusting 4 12.2
2020-Jul-06 00:30 178 1 gusting 5 12.2
2020-Jul-06 00:15 172 1 gusting 6 12.8
2020-Jul-06 00:00 174 0 gusting 3 12.8
2020-Jul-05 23:45 170 1 gusting 6 12.8
2020-Jul-05 23:30 145 0 gusting 3 12.8
2020-Jul-05 23:15 182 1 gusting 6 12.8
2020-Jul-05 23:00 176 2 gusting 6 12.8
2020-Jul-05 22:45 181 1 gusting 6 12.8
2020-Jul-05 22:30 167 1 gusting 6 12.8
2020-Jul-05 22:15 155 1 gusting 6 13.3
2020-Jul-05 22:02 165 2 gusting 6 13.3
2020-Jul-05 21:47 161 3 gusting 7 13.3
2020-Jul-05 21:31 155 3 gusting 6 13.3
2020-Jul-05 21:17 146 2 gusting 6 13.3
2020-Jul-05 21:03 189 3 gusting 8 13.9
2020-Jul-05 20:46 186 3 gusting 7 13.9
2020-Jul-05 20:31 209 6 gusting 9 14.4
2020-Jul-05 20:16 176 5 gusting 12 14.4
2020-Jul-05 20:01 207 5 gusting 11 14.4
2020-Jul-05 19:46 213 6 gusting 9 15.0
2020-Jul-05 19:31 151 4 gusting 9 15.0
2020-Jul-05 19:16 153 4 gusting 10 15.6
2020-Jul-05 19:01 188 5 gusting 10 16.1
2020-Jul-05 18:46 164 2 gusting 9 16.7
2020-Jul-05 18:31 127 4 gusting 8 16.7
2020-Jul-05 18:16 156 3 gusting 8 16.7
2020-Jul-05 18:01 136 2 gusting 10 16.7
2020-Jul-05 17:46 123 3 gusting 10 17.2
2020-Jul-05 17:31 130 2 gusting 10 17.2
2020-Jul-05 17:16 119 5 gusting 10 17.2
2020-Jul-05 17:01 150 2 gusting 8 17.2
2020-Jul-05 16:46 112 2 gusting 8 17.8
2020-Jul-05 16:32 163 2 gusting 9 16.7
2020-Jul-05 16:16 134 3 gusting 7 17.2
2020-Jul-05 16:00 121 4 gusting 8 16.1
2020-Jul-05 15:45 190 2 gusting 8 15.6
2020-Jul-05 15:30 168 5 gusting 9 15.6
2020-Jul-05 15:16 173 2 gusting 6 15.6
2020-Jul-05 15:01 201 5 gusting 10 15.0
2020-Jul-05 14:46 197 4 gusting 7 15.0
2020-Jul-05 14:30 242 3 gusting 6 14.4
2020-Jul-05 14:16 174 4 gusting 7 14.4
2020-Jul-05 14:00 221 0 gusting 5 14.4
2020-Jul-05 13:45 158 2 gusting 7 14.4
2020-Jul-05 13:30 234 0 gusting 6 14.4
2020-Jul-05 13:16 169 13.9
2020-Jul-05 13:00 130 2 gusting 6 13.9
2020-Jul-05 12:45 189 13.3
2020-Jul-05 12:30 188 2 gusting 8 13.9
2020-Jul-05 12:15 140 1 gusting 6 13.3
2020-Jul-05 12:00 175 2 gusting 7 12.8
2020-Jul-05 11:45 158 1 gusting 6 12.8
2020-Jul-05 11:30 096 1 gusting 6 12.2
2020-Jul-05 11:15 143 1 gusting 6 12.2
2020-Jul-05 11:01 150 0 gusting 5 11.7
2020-Jul-05 10:47 101 1 gusting 6 12.2
2020-Jul-05 10:32 128 12.2
2020-Jul-05 10:17 140 0 gusting 5 11.7
2020-Jul-05 10:01 122 1 gusting 5 11.7
2020-Jul-05 09:46 090 1 gusting 3 11.1
2020-Jul-05 09:31 037 11.7
2020-Jul-05 09:16 063 11.1
2020-Jul-05 09:01 074 11.1
2020-Jul-05 08:46 088 11.1
2020-Jul-05 08:31 088 11.1
2020-Jul-05 08:16 136 11.1
2020-Jul-05 08:00 136 11.1
2020-Jul-05 07:46 138 0 gusting 2 11.1
2020-Jul-05 07:31 146 11.1
2020-Jul-05 07:16 146 11.1
2020-Jul-05 07:00 146 11.1
2020-Jul-05 06:46 092 11.1
2020-Jul-05 06:31 088 0 gusting 3 11.1
2020-Jul-05 06:15 109 0 gusting 1 11.1
2020-Jul-05 06:00 122 0 gusting 3 11.1
2020-Jul-05 05:46 121 0 gusting 2 11.1
2020-Jul-05 05:31 082 0 gusting 2 11.1
2020-Jul-05 05:16 131 11.7
2020-Jul-05 05:01 131 11.7
2020-Jul-05 04:30 084 11.7
2020-Jul-05 04:16 123 0 gusting 3 11.7
2020-Jul-05 04:00 086 0 gusting 3 11.7
2020-Jul-05 03:45 070 0 gusting 3 11.7
2020-Jul-05 03:30 093 0 gusting 3 11.7
2020-Jul-05 03:15 128 11.7
2020-Jul-05 03:00 103 11.7
2020-Jul-05 02:45 103 11.7
2020-Jul-05 02:30 102 1 gusting 5 11.7
2020-Jul-05 02:15 117 1 gusting 6 12.2
2020-Jul-05 02:00 078 1 gusting 3 12.2
2020-Jul-05 01:45 072 12.2
2020-Jul-05 01:30 088 0 gusting 4 12.2
2020-Jul-05 01:00 129 1 gusting 4 12.2
2020-Jul-05 00:45 096 0 gusting 2 12.2
2020-Jul-05 00:30 072 1 gusting 3 12.2
2020-Jul-05 00:15 088 0 gusting 6 12.8
2020-Jul-05 00:00 078 1 gusting 6 12.8
2020-Jul-04 23:45 110 1 gusting 5 12.8
2020-Jul-04 23:30 091 0 gusting 5 12.8
2020-Jul-04 23:15 115 1 gusting 4 12.8
2020-Jul-04 23:00 092 1 gusting 3 13.3
2020-Jul-04 22:45 135 1 gusting 8 13.3
2020-Jul-04 22:30 119 4 gusting 7 13.3
2020-Jul-04 22:15 094 2 gusting 7 13.3
2020-Jul-04 22:00 080 1 gusting 6 13.9
2020-Jul-04 21:45 142 2 gusting 6 13.9
2020-Jul-04 21:30 113 2 gusting 6 13.9
2020-Jul-04 21:15 109 2 gusting 6 14.4
2020-Jul-04 21:00 069 1 gusting 7 14.4
2020-Jul-04 20:46 087 2 gusting 6 14.4
2020-Jul-04 20:18 096 1 gusting 9 13.9
2020-Jul-04 20:03 123 1 gusting 7 15.0
2020-Jul-04 19:47 101 3 gusting 7 14.4
2020-Jul-04 19:32 176 1 gusting 6 15.0
2020-Jul-04 19:16 116 4 gusting 8 13.9
2020-Jul-04 19:01 112 4 gusting 9 15.0
2020-Jul-04 18:46 154 2 gusting 6 15.0
2020-Jul-04 18:32 169 1 gusting 9 15.6
2020-Jul-04 18:16 107 3 gusting 8 15.6
2020-Jul-04 18:02 148 3 gusting 10 15.6
2020-Jul-04 17:46 167 5 gusting 13 15.6
2020-Jul-04 17:31 165 2 gusting 9 15.6
2020-Jul-04 17:16 129 2 gusting 12 15.0
2020-Jul-04 17:02 147 2 gusting 8 15.0
2020-Jul-04 16:47 137 2 gusting 8 14.4
2020-Jul-04 16:31 102 5 gusting 11 15.0
2020-Jul-04 16:16 132 4 gusting 10 15.0
2020-Jul-04 16:01 142 3 gusting 9 15.6
2020-Jul-04 15:46 118 3 gusting 7 15.6
2020-Jul-04 15:31 136 3 gusting 7 15.6
2020-Jul-04 15:15 197 2 gusting 8 15.6
2020-Jul-04 15:01 202 4 gusting 8 15.6
2020-Jul-04 14:46 132 4 gusting 12 15.6
2020-Jul-04 14:30 157 4 gusting 8 15.0
2020-Jul-04 14:15 070 2 gusting 9 15.6
2020-Jul-04 14:00 114 3 gusting 8 15.0
2020-Jul-04 13:46 138 3 gusting 7 15.0
2020-Jul-04 13:30 139 2 gusting 5 14.4
2020-Jul-04 13:16 109 1 gusting 7 14.4
2020-Jul-04 13:01 134 3 gusting 9 15.0
2020-Jul-04 12:45 153 4 gusting 7 14.4
2020-Jul-04 12:30 155 3 gusting 8 13.9
2020-Jul-04 12:15 163 3 gusting 7 13.3
2020-Jul-04 12:00 164 2 gusting 6 13.3
2020-Jul-04 11:45 130 0 gusting 7 13.3
2020-Jul-04 11:30 109 2 gusting 7 12.8
2020-Jul-04 11:15 137 1 gusting 4 12.8
2020-Jul-04 11:01 137 12.2
2020-Jul-04 10:45 184 0 gusting 4 12.2
2020-Jul-04 10:30 105 1 gusting 3 12.2
2020-Jul-04 10:15 057 0 gusting 6 12.2
2020-Jul-04 10:00 147 0 gusting 3 12.2
2020-Jul-04 09:45 085 1 gusting 6 12.2
2020-Jul-04 09:30 121 0 gusting 3 12.2
2020-Jul-04 09:15 143 12.2
2020-Jul-04 08:47 142 12.2
2020-Jul-04 08:31 142 12.2
2020-Jul-04 08:17 115 0 gusting 2 12.2
2020-Jul-04 08:02 133 0 gusting 3 12.2
2020-Jul-04 07:46 142 0 gusting 4 12.2
2020-Jul-04 07:31 134 12.2
2020-Jul-04 07:17 155 0 gusting 2 12.2
2020-Jul-04 07:01 143 0 gusting 5 12.2
2020-Jul-04 06:46 161 1 gusting 6 12.2
2020-Jul-04 06:31 128 12.2
2020-Jul-04 06:18 142 0 gusting 3 12.8
2020-Jul-04 06:03 192 0 gusting 2 12.8